Freedom of the Seas — C6UZ7 — position and weather

sailwx.info

Track history (hours):
 
Tides and Currents Weather Stations Pressure Air Temp Water Temp Dewpoint Dewpoint Depression Visibility Wind Speed Wind Dir Waves Ship Positions

Freedom of the Seas

Last reported at 2020-Mar-19 01:00 UTC. Time now 2020-Mar-29 14:48 UTC.
Position N 26°08' W 079°28'.
Warning: this ship's position is 10 days out of date.

Length 339 m; draft 9.3 m.

Type: Passenger vessel. MMSI: 309906000.

Date/timePositionNaut miles runAvg speedWind from/ knotsBaromVisibWave heightAir tempDewpointWater temp
2020-Mar-19 01:00N 26°08' W 079°28'1615.7
2020-Mar-19 00:00N 25°59' W 079°42'28 6.9
2020-Mar-18 19:58N 25°46' W 080°10'0 0.0
2020-Mar-18 18:28N 25°46' W 080°10'0 0.0
2020-Mar-18 13:25N 25°46' W 080°10'0 0.0
2020-Mar-18 12:28N 25°46' W 080°10'0 0.0
2020-Mar-18 11:58N 25°46' W 080°10'0 0.0
2020-Mar-18 09:55N 25°46' W 080°10'0 0.0
2020-Mar-18 09:28N 25°46' W 080°10'0 0.0
2020-Mar-18 08:58N 25°46' W 080°10'0 0.0
2020-Mar-18 08:28N 25°46' W 080°10'0 0.0
2020-Mar-18 03:28N 25°46' W 080°10'0 0.0
2020-Mar-18 02:28N 25°46' W 080°10'0 0.0
2020-Mar-18 01:58N 25°46' W 080°10'0 0.0
2020-Mar-18 00:58N 25°46' W 080°10'0 0.0
2020-Mar-17 20:28N 25°46' W 080°10'0 0.0
2020-Mar-17 17:58N 25°46' W 080°10'0 0.0
2020-Mar-17 16:28N 25°46' W 080°10'0 0.0
2020-Mar-17 12:58N 25°46' W 080°10'2 0.9
2020-Mar-17 10:30N 25°46' W 080°07'8 7.5
2020-Mar-17 09:31N 25°49' W 079°60'3611.9
2020-Mar-17 06:30N 26°11' W 079°29'612.0
2020-Mar-17 06:00N 26°14' W 079°23'90017.8
2020-Mar-15 03:30N 18°35' W 065°26'7 6.9
2020-Mar-15 02:30N 18°30' W 065°21'9 6.1
2020-Mar-15 01:00N 18°24' W 065°14'15 6.0
2020-Mar-14 22:30N 18°18' W 064°60'3 2.7
2020-Mar-14 21:25N 18°20' W 064°57'12 1.1
2020-Mar-14 10:30N 18°11' W 065°05'  
2020-Mar-11 08:00N 12°06' W 069°24'67 2.8 070 / 231012.0 5.4 26.026.0
2020-Mar-10 08:00N 13°06' W 069°54'   070 / 211016.0 5.4 26.026.0
Track history (hours):
 
Tides and Currents Weather Stations Pressure Air Temp Water Temp Dewpoint Dewpoint Depression Visibility Wind Speed Wind Dir Waves Ship Positions

Freedom of the Seas

Last reported at 2020-Mar-19 01:00 UTC. Time now 2020-Mar-29 14:48 UTC.
Position N 26°08' W 079°28'.
Warning: this ship's position is 10 days out of date.

Length 339 m; draft 9.3 m.

Type: Passenger vessel. MMSI: 309906000.

Date/timePositionNaut miles runAvg speedWind from/ knotsBaromVisibWave heightAir tempDewpointWater temp
2020-Mar-19 01:00N 26°08' W 079°28'1615.7
2020-Mar-19 00:00N 25°59' W 079°42'28 6.9
2020-Mar-18 19:58N 25°46' W 080°10'0 0.0
2020-Mar-18 18:28N 25°46' W 080°10'0 0.0
2020-Mar-18 13:25N 25°46' W 080°10'0 0.0
2020-Mar-18 12:28N 25°46' W 080°10'0 0.0
2020-Mar-18 11:58N 25°46' W 080°10'0 0.0
2020-Mar-18 09:55N 25°46' W 080°10'0 0.0
2020-Mar-18 09:28N 25°46' W 080°10'0 0.0
2020-Mar-18 08:58N 25°46' W 080°10'0 0.0
2020-Mar-18 08:28N 25°46' W 080°10'0 0.0
2020-Mar-18 03:28N 25°46' W 080°10'0 0.0
2020-Mar-18 02:28N 25°46' W 080°10'0 0.0
2020-Mar-18 01:58N 25°46' W 080°10'0 0.0
2020-Mar-18 00:58N 25°46' W 080°10'0 0.0
2020-Mar-17 20:28N 25°46' W 080°10'0 0.0
2020-Mar-17 17:58N 25°46' W 080°10'0 0.0
2020-Mar-17 16:28N 25°46' W 080°10'0 0.0
2020-Mar-17 12:58N 25°46' W 080°10'2 0.9
2020-Mar-17 10:30N 25°46' W 080°07'8 7.5
2020-Mar-17 09:31N 25°49' W 079°60'3611.9
2020-Mar-17 06:30N 26°11' W 079°29'612.0
2020-Mar-17 06:00N 26°14' W 079°23'90017.8
2020-Mar-15 03:30N 18°35' W 065°26'7 6.9
2020-Mar-15 02:30N 18°30' W 065°21'9 6.1
2020-Mar-15 01:00N 18°24' W 065°14'15 6.0
2020-Mar-14 22:30N 18°18' W 064°60'3 2.7
2020-Mar-14 21:25N 18°20' W 064°57'12 1.1
2020-Mar-14 10:30N 18°11' W 065°05'  
2020-Mar-11 08:00N 12°06' W 069°24'67 2.8 070 / 231012.0 5.4 26.026.0
2020-Mar-10 08:00N 13°06' W 069°54'   070 / 211016.0 5.4 26.026.0

Dump ship's entire track history